Kezdőlap
METAR-TAF:

METAR-TAF

Repülőterek :

South St. Paul Municipal Airport (Richard E. Fleming Field)

South St. Paul, Minnesota, Amerikai Egyesült Államok

földrajzi szélesség: 44-51-26N, földrajzi hosszúság: 093-01-58W, magasság: 250 m

Jelenlegi meteorológiai megfigyelések

A jelentés 17 perccel ezelõtt készült, 05:36 UTC
Szélcsend
Hőmérséklet 1°C
Páratartalom 93%
Légköri nyomás 1006 hPa
Látótávolság: 11.3 km
Szakadozott felhőzet 900 lábon

METAR: KSGS 090536Z AUTO 00000KT 7SM BKN009 01/00 A2971 RMK AO2 T00101005

Idő: 23:53 (05:53 UTC)


TAF: hiányzik

Meteorológiai megfigyelések és előrejelzések több, mint 4000 repülőtéren (METAR és TAF jelentéseket).

A térképen piros és sárga pontok jelzik az elérhető meteorológiai állomásokat.

Mozgassa az egeret a pont fölött, hogy megjelenjen az állomás neve.

Azután kattintson az időjárási megfigyelések és előrejelzések megtekintéséhez.

A térkép megváltoztatása: kattintson a fekete keresztel jelölt zöld gombra ráközelítéshez, a vonallal jelölt zöld gombra távolításhoz, vagy a zöld nyilakra a szomszédos térképek eléréséhez.


METAR-TAF: